sensor_id;sensor_type;location;lat;lon;timestamp;pressure;altitude;pressure_sealevel;temperature;humidity
54556;BME280;57291;37.520;15.106;2024-03-17T00:00:47;101656.31;;;13.10;83.36
54556;BME280;57291;37.520;15.106;2024-03-17T00:03:13;101657.97;;;13.06;83.27
54556;BME280;57291;37.520;15.106;2024-03-17T00:05:39;101656.88;;;13.07;82.80
54556;BME280;57291;37.520;15.106;2024-03-17T00:08:06;101667.00;;;13.06;81.99
54556;BME280;57291;37.520;15.106;2024-03-17T00:10:32;101666.16;;;13.06;81.91
54556;BME280;57291;37.520;15.106;2024-03-17T00:12:58;101664.84;;;13.03;80.32
54556;BME280;57291;37.520;15.106;2024-03-17T00:15:25;101666.22;;;13.01;80.16
54556;BME280;57291;37.520;15.106;2024-03-17T00:17:51;101666.50;;;12.99;80.09
54556;BME280;57291;37.520;15.106;2024-03-17T00:20:17;101662.44;;;12.97;80.10
54556;BME280;57291;37.520;15.106;2024-03-17T00:22:48;101653.44;;;12.96;80.49
54556;BME280;57291;37.520;15.106;2024-03-17T00:25:15;101658.59;;;12.98;79.87
54556;BME280;57291;37.520;15.106;2024-03-17T00:27:41;101657.25;;;12.95;79.97
54556;BME280;57291;37.520;15.106;2024-03-17T00:30:11;101652.38;;;12.92;80.03
54556;BME280;57291;37.520;15.106;2024-03-17T00:32:42;101651.56;;;12.91;79.95
54556;BME280;57291;37.520;15.106;2024-03-17T00:35:09;101650.19;;;12.94;79.52
54556;BME280;57291;37.520;15.106;2024-03-17T00:37:37;101653.19;;;12.93;79.51
54556;BME280;57291;37.520;15.106;2024-03-17T00:40:05;101655.41;;;12.90;79.82
54556;BME280;57291;37.520;15.106;2024-03-17T00:42:32;101651.03;;;12.89;79.78
54556;BME280;57291;37.520;15.106;2024-03-17T00:44:59;101650.22;;;12.89;80.10
54556;BME280;57291;37.520;15.106;2024-03-17T00:47:28;101643.16;;;12.88;80.34
54556;BME280;57291;37.520;15.106;2024-03-17T00:49:55;101635.53;;;12.85;80.29
54556;BME280;57291;37.520;15.106;2024-03-17T00:52:21;101642.13;;;12.84;80.58
54556;BME280;57291;37.520;15.106;2024-03-17T00:54:47;101633.69;;;12.80;80.93
54556;BME280;57291;37.520;15.106;2024-03-17T00:57:14;101630.97;;;12.80;81.17
54556;BME280;57291;37.520;15.106;2024-03-17T00:59:42;101635.88;;;12.78;81.44
54556;BME280;57291;37.520;15.106;2024-03-17T01:02:15;101633.16;;;12.78;81.56
54556;BME280;57291;37.520;15.106;2024-03-17T01:04:45;101627.16;;;12.76;81.65
54556;BME280;57291;37.520;15.106;2024-03-17T01:07:12;101623.63;;;12.76;81.55
54556;BME280;57291;37.520;15.106;2024-03-17T01:09:38;101614.09;;;12.73;82.17
54556;BME280;57291;37.520;15.106;2024-03-17T01:12:05;101610.28;;;12.74;82.31
54556;BME280;57291;37.520;15.106;2024-03-17T01:14:34;101611.09;;;12.75;82.14
54556;BME280;57291;37.520;15.106;2024-03-17T01:17:01;101608.06;;;12.76;82.23
54556;BME280;57291;37.520;15.106;2024-03-17T01:19:31;101607.56;;;12.74;82.77
54556;BME280;57291;37.520;15.106;2024-03-17T01:21:57;101602.69;;;12.71;83.08
54556;BME280;57291;37.520;15.106;2024-03-17T01:24:23;101606.53;;;12.70;83.50
54556;BME280;57291;37.520;15.106;2024-03-17T01:26:50;101599.94;;;12.71;83.69
54556;BME280;57291;37.520;15.106;2024-03-17T01:29:16;101600.19;;;12.75;84.33
54556;BME280;57291;37.520;15.106;2024-03-17T01:31:43;101594.97;;;12.78;84.46
54556;BME280;57291;37.520;15.106;2024-03-17T01:34:09;101599.03;;;12.81;84.46
54556;BME280;57291;37.520;15.106;2024-03-17T01:36:35;101597.69;;;12.78;84.73
54556;BME280;57291;37.520;15.106;2024-03-17T01:39:01;101591.19;;;12.74;84.83
54556;BME280;57291;37.520;15.106;2024-03-17T01:41:28;101596.13;;;12.72;85.27
54556;BME280;57291;37.520;15.106;2024-03-17T01:43:55;101583.06;;;12.69;85.54
54556;BME280;57291;37.520;15.106;2024-03-17T01:46:21;101586.66;;;12.64;85.40
54556;BME280;57291;37.520;15.106;2024-03-17T01:48:48;101591.06;;;12.60;85.91
54556;BME280;57291;37.520;15.106;2024-03-17T01:51:15;101592.44;;;12.58;86.27
54556;BME280;57291;37.520;15.106;2024-03-17T01:53:42;101585.66;;;12.55;86.78
54556;BME280;57291;37.520;15.106;2024-03-17T01:56:11;101585.94;;;12.54;86.92
54556;BME280;57291;37.520;15.106;2024-03-17T01:58:37;101585.97;;;12.49;87.07
54556;BME280;57291;37.520;15.106;2024-03-17T02:01:04;101583.50;;;12.52;87.42
54556;BME280;57291;37.520;15.106;2024-03-17T02:03:30;101585.94;;;12.54;87.25
54556;BME280;57291;37.520;15.106;2024-03-17T02:05:58;101588.38;;;12.55;87.23
54556;BME280;57291;37.520;15.106;2024-03-17T02:08:25;101582.91;;;12.55;87.32
54556;BME280;57291;37.520;15.106;2024-03-17T02:10:55;101575.84;;;12.54;87.22
54556;BME280;57291;37.520;15.106;2024-03-17T02:13:22;101580.22;;;12.50;87.62
54556;BME280;57291;37.520;15.106;2024-03-17T02:15:48;101583.81;;;12.46;87.63
54556;BME280;57291;37.520;15.106;2024-03-17T02:18:15;101580.88;;;12.42;88.11
54556;BME280;57291;37.520;15.106;2024-03-17T02:20:41;101584.97;;;12.39;87.98
54556;BME280;57291;37.520;15.106;2024-03-17T02:23:26;101578.72;;;12.39;88.04
54556;BME280;57291;37.520;15.106;2024-03-17T02:25:53;101575.72;;;12.40;88.27
54556;BME280;57291;37.520;15.106;2024-03-17T02:28:19;101573.00;;;12.40;88.52
54556;BME280;57291;37.520;15.106;2024-03-17T02:30:46;101565.63;;;12.41;88.40
54556;BME280;57291;37.520;15.106;2024-03-17T02:33:12;101561.78;;;12.42;88.40
54556;BME280;57291;37.520;15.106;2024-03-17T02:35:38;101566.13;;;12.43;88.72
54556;BME280;57291;37.520;15.106;2024-03-17T02:38:05;101568.63;;;12.39;88.42
54556;BME280;57291;37.520;15.106;2024-03-17T02:40:31;101577.09;;;12.38;88.93
54556;BME280;57291;37.520;15.106;2024-03-17T02:42:58;101583.13;;;12.35;88.90
54556;BME280;57291;37.520;15.106;2024-03-17T02:45:24;101576.56;;;12.36;89.43
54556;BME280;57291;37.520;15.106;2024-03-17T02:47:50;101580.38;;;12.35;89.85
54556;BME280;57291;37.520;15.106;2024-03-17T02:50:16;101585.06;;;12.29;90.07
54556;BME280;57291;37.520;15.106;2024-03-17T02:52:43;101582.66;;;12.23;90.26
54556;BME280;57291;37.520;15.106;2024-03-17T02:55:09;101582.97;;;12.21;90.60
54556;BME280;57291;37.520;15.106;2024-03-17T02:57:36;101583.53;;;12.18;90.93
54556;BME280;57291;37.520;15.106;2024-03-17T03:00:02;101575.13;;;12.14;91.37
54556;BME280;57291;37.520;15.106;2024-03-17T03:02:30;101565.59;;;12.12;91.72
54556;BME280;57291;37.520;15.106;2024-03-17T03:04:56;101568.06;;;12.08;92.87
54556;BME280;57291;37.520;15.106;2024-03-17T03:07:23;101570.56;;;12.05;93.47
54556;BME280;57291;37.520;15.106;2024-03-17T03:09:50;101573.31;;;12.00;93.83
54556;BME280;57291;37.520;15.106;2024-03-17T03:12:17;101567.31;;;11.97;94.22
54556;BME280;57291;37.520;15.106;2024-03-17T03:14:43;101574.94;;;12.01;94.14
54556;BME280;57291;37.520;15.106;2024-03-17T03:17:09;101579.00;;;12.03;93.83
54556;BME280;57291;37.520;15.106;2024-03-17T03:19:35;101587.47;;;12.02;93.86
54556;BME280;57291;37.520;15.106;2024-03-17T03:22:02;101582.03;;;11.96;93.91
54556;BME280;57291;37.520;15.106;2024-03-17T03:24:28;101577.47;;;11.92;93.99
54556;BME280;57291;37.520;15.106;2024-03-17T03:26:54;101576.41;;;11.88;94.38
54556;BME280;57291;37.520;15.106;2024-03-17T03:29:20;101572.34;;;11.85;94.77
54556;BME280;57291;37.520;15.106;2024-03-17T03:31:46;101581.31;;;11.86;95.12
54556;BME280;57291;37.520;15.106;2024-03-17T03:34:14;101578.84;;;11.84;95.72
54556;BME280;57291;37.520;15.106;2024-03-17T03:36:40;101589.75;;;11.84;95.60
54556;BME280;57291;37.520;15.106;2024-03-17T03:39:07;101581.03;;;11.82;95.47
54556;BME280;57291;37.520;15.106;2024-03-17T03:41:37;101579.13;;;11.83;95.57
54556;BME280;57291;37.520;15.106;2024-03-17T03:44:04;101582.41;;;11.85;95.37
54556;BME280;57291;37.520;15.106;2024-03-17T03:46:30;101590.59;;;11.85;94.96
54556;BME280;57291;37.520;15.106;2024-03-17T03:48:56;101584.84;;;11.81;94.40
54556;BME280;57291;37.520;15.106;2024-03-17T03:51:23;101592.50;;;11.79;94.03
54556;BME280;57291;37.520;15.106;2024-03-17T03:53:50;101591.69;;;11.79;93.23
54556;BME280;57291;37.520;15.106;2024-03-17T03:56:17;101598.50;;;11.76;92.39
54556;BME280;57291;37.520;15.106;2024-03-17T03:58:44;101594.16;;;11.75;91.72
54556;BME280;57291;37.520;15.106;2024-03-17T04:01:12;101594.44;;;11.73;91.14
54556;BME280;57291;37.520;15.106;2024-03-17T04:03:38;101603.94;;;11.76;90.29
54556;BME280;57291;37.520;15.106;2024-03-17T04:06:09;101609.41;;;11.76;89.88
54556;BME280;57291;37.520;15.106;2024-03-17T04:08:37;101602.34;;;11.75;89.52
54556;BME280;57291;37.520;15.106;2024-03-17T04:11:08;101600.69;;;11.74;89.63
54556;BME280;57291;37.520;15.106;2024-03-17T04:13:34;101609.97;;;11.73;89.84
54556;BME280;57291;37.520;15.106;2024-03-17T04:16:04;101600.44;;;11.70;89.72
54556;BME280;57291;37.520;15.106;2024-03-17T04:18:31;101603.44;;;11.69;89.92
54556;BME280;57291;37.520;15.106;2024-03-17T04:21:05;101599.88;;;11.73;90.01
54556;BME280;57291;37.520;15.106;2024-03-17T04:23:34;101604.50;;;11.73;90.25
54556;BME280;57291;37.520;15.106;2024-03-17T04:26:01;101613.22;;;11.75;90.16
54556;BME280;57291;37.520;15.106;2024-03-17T04:28:29;101606.94;;;11.74;90.23
54556;BME280;57291;37.520;15.106;2024-03-17T04:31:05;101617.00;;;11.79;90.22
54556;BME280;57291;37.520;15.106;2024-03-17T04:33:35;101614.28;;;11.79;90.23
54556;BME280;57291;37.520;15.106;2024-03-17T04:36:02;101616.72;;;11.81;89.90
54556;BME280;57291;37.520;15.106;2024-03-17T04:38:28;101617.00;;;11.79;89.90
54556;BME280;57291;37.520;15.106;2024-03-17T04:40:55;101613.75;;;11.77;89.98
54556;BME280;57291;37.520;15.106;2024-03-17T04:43:33;101616.47;;;11.77;90.27
54556;BME280;57291;37.520;15.106;2024-03-17T04:46:05;101616.47;;;11.77;90.08
54556;BME280;57291;37.520;15.106;2024-03-17T04:48:33;101623.81;;;11.77;90.48
54556;BME280;57291;37.520;15.106;2024-03-17T04:51:00;101622.19;;;11.76;90.45
54556;BME280;57291;37.520;15.106;2024-03-17T04:53:26;101618.38;;;11.77;90.60
54556;BME280;57291;37.520;15.106;2024-03-17T04:56:04;101632.28;;;11.75;90.48
54556;BME280;57291;37.520;15.106;2024-03-17T04:58:34;101623.28;;;11.74;90.40
54556;BME280;57291;37.520;15.106;2024-03-17T05:01:05;101631.19;;;11.71;90.46
54556;BME280;57291;37.520;15.106;2024-03-17T05:03:33;101627.97;;;11.69;90.81
54556;BME280;57291;37.520;15.106;2024-03-17T05:06:00;101635.56;;;11.72;90.47
54556;BME280;57291;37.520;15.106;2024-03-17T05:08:28;101641.53;;;11.74;90.51
54556;BME280;57291;37.520;15.106;2024-03-17T05:11:01;101641.00;;;11.72;90.26
54556;BME280;57291;37.520;15.106;2024-03-17T05:13:32;101642.63;;;11.73;90.43
54556;BME280;57291;37.520;15.106;2024-03-17T05:16:00;101639.63;;;11.74;90.65
54556;BME280;57291;37.520;15.106;2024-03-17T05:18:26;101645.84;;;11.80;90.48
54556;BME280;57291;37.520;15.106;2024-03-17T05:21:00;101648.41;;;12.11;91.14
54556;BME280;57291;37.520;15.106;2024-03-17T05:23:27;101645.09;;;12.53;91.29
54556;BME280;57291;37.520;15.106;2024-03-17T05:25:55;101649.88;;;12.96;89.99
54556;BME280;57291;37.520;15.106;2024-03-17T05:28:22;101647.91;;;13.30;88.60
54556;BME280;57291;37.520;15.106;2024-03-17T05:30:48;101650.78;;;13.63;86.13
54556;BME280;57291;37.520;15.106;2024-03-17T05:33:17;101657.69;;;13.55;83.20
54556;BME280;57291;37.520;15.106;2024-03-17T05:35:53;101661.13;;;13.66;83.26
54556;BME280;57291;37.520;15.106;2024-03-17T05:38:21;101655.97;;;14.21;84.27
54556;BME280;57291;37.520;15.106;2024-03-17T05:40:57;101673.28;;;15.01;83.02
54556;BME280;57291;37.520;15.106;2024-03-17T05:43:27;101677.91;;;15.97;81.07
54556;BME280;57291;37.520;15.106;2024-03-17T05:45:55;101674.59;;;16.90;77.70
54556;BME280;57291;37.520;15.106;2024-03-17T05:48:22;101666.59;;;17.59;71.09
54556;BME280;57291;37.520;15.106;2024-03-17T05:50:50;101672.69;;;17.96;66.92
54556;BME280;57291;37.520;15.106;2024-03-17T05:53:23;101669.13;;;18.39;64.87
54556;BME280;57291;37.520;15.106;2024-03-17T05:55:50;101672.00;;;18.86;62.87
54556;BME280;57291;37.520;15.106;2024-03-17T05:58:16;101672.78;;;19.34;61.50
54556;BME280;57291;37.520;15.106;2024-03-17T06:00:42;101671.69;;;19.85;59.09
54556;BME280;57291;37.520;15.106;2024-03-17T06:03:10;101666.75;;;20.33;56.30
54556;BME280;57291;37.520;15.106;2024-03-17T06:05:37;101668.38;;;21.00;54.60
54556;BME280;57291;37.520;15.106;2024-03-17T06:08:05;101661.94;;;21.45;53.48
54556;BME280;57291;37.520;15.106;2024-03-17T06:10:32;101662.66;;;22.07;51.29
54556;BME280;57291;37.520;15.106;2024-03-17T06:12:59;101656.22;;;22.59;50.41
54556;BME280;57291;37.520;15.106;2024-03-17T06:15:26;101656.03;;;23.12;47.69
54556;BME280;57291;37.520;15.106;2024-03-17T06:17:53;101661.81;;;23.23;46.39
54556;BME280;57291;37.520;15.106;2024-03-17T06:20:20;101663.25;;;23.32;46.76
54556;BME280;57291;37.520;15.106;2024-03-17T06:22:47;101671.72;;;23.55;44.98
54556;BME280;57291;37.520;15.106;2024-03-17T06:25:13;101674.75;;;24.01;44.83
54556;BME280;57291;37.520;15.106;2024-03-17T06:27:40;101679.91;;;24.19;44.32
54556;BME280;57291;37.520;15.106;2024-03-17T06:30:06;101684.16;;;24.51;43.26
54556;BME280;57291;37.520;15.106;2024-03-17T06:32:33;101688.19;;;24.77;43.35
54556;BME280;57291;37.520;15.106;2024-03-17T06:35:01;101685.91;;;25.06;41.67
54556;BME280;57291;37.520;15.106;2024-03-17T06:37:28;101691.66;;;24.93;42.44
54556;BME280;57291;37.520;15.106;2024-03-17T06:39:54;101681.75;;;23.76;43.57
54556;BME280;57291;37.520;15.106;2024-03-17T06:42:21;101691.56;;;24.08;44.82
54556;BME280;57291;37.520;15.106;2024-03-17T06:44:47;101692.13;;;23.98;44.81
54556;BME280;57291;37.520;15.106;2024-03-17T06:47:13;101692.00;;;24.10;44.32
54556;BME280;57291;37.520;15.106;2024-03-17T06:49:39;101692.16;;;24.37;43.72
54556;BME280;57291;37.520;15.106;2024-03-17T06:52:06;101683.69;;;24.49;43.67
54556;BME280;57291;37.520;15.106;2024-03-17T06:54:32;101695.47;;;23.53;46.33
54556;BME280;57291;37.520;15.106;2024-03-17T06:56:59;101691.78;;;22.57;48.14
54556;BME280;57291;37.520;15.106;2024-03-17T06:59:26;101692.28;;;22.75;48.09
54556;BME280;57291;37.520;15.106;2024-03-17T07:01:52;101700.91;;;23.49;46.44
54556;BME280;57291;37.520;15.106;2024-03-17T07:04:18;101696.22;;;23.85;44.49
54556;BME280;57291;37.520;15.106;2024-03-17T07:06:46;101693.00;;;23.83;43.33
54556;BME280;57291;37.520;15.106;2024-03-17T07:09:13;101699.47;;;24.06;42.67
54556;BME280;57291;37.520;15.106;2024-03-17T07:11:39;101702.66;;;24.08;42.27
54556;BME280;57291;37.520;15.106;2024-03-17T07:14:05;101708.06;;;24.01;42.42
54556;BME280;57291;37.520;15.106;2024-03-17T07:16:31;101705.88;;;24.10;44.49
54556;BME280;57291;37.520;15.106;2024-03-17T07:18:58;101704.31;;;24.29;44.67
54556;BME280;57291;37.520;15.106;2024-03-17T07:21:25;101706.34;;;24.13;44.30
54556;BME280;57291;37.520;15.106;2024-03-17T07:23:51;101711.53;;;23.79;43.54
54556;BME280;57291;37.520;15.106;2024-03-17T07:26:18;101711.16;;;23.96;43.50
54556;BME280;57291;37.520;15.106;2024-03-17T07:28:44;101719.16;;;23.66;44.39
54556;BME280;57291;37.520;15.106;2024-03-17T07:31:10;101718.69;;;23.64;45.37
54556;BME280;57291;37.520;15.106;2024-03-17T07:33:37;101716.94;;;23.08;47.33
54556;BME280;57291;37.520;15.106;2024-03-17T07:36:03;101730.38;;;22.50;48.87
54556;BME280;57291;37.520;15.106;2024-03-17T07:38:31;101727.97;;;21.71;51.20
54556;BME280;57291;37.520;15.106;2024-03-17T07:41:07;101736.69;;;21.24;53.06
54556;BME280;57291;37.520;15.106;2024-03-17T07:43:38;101734.97;;;21.20;51.30
54556;BME280;57291;37.520;15.106;2024-03-17T07:46:12;101730.72;;;20.89;51.54
54556;BME280;57291;37.520;15.106;2024-03-17T07:48:40;101731.06;;;21.33;50.70
54556;BME280;57291;37.520;15.106;2024-03-17T07:51:08;101727.16;;;21.83;49.88
54556;BME280;57291;37.520;15.106;2024-03-17T07:53:36;101730.47;;;22.13;49.16
54556;BME280;57291;37.520;15.106;2024-03-17T07:56:05;101719.56;;;21.68;51.25
54556;BME280;57291;37.520;15.106;2024-03-17T07:58:33;101722.84;;;22.10;48.05
54556;BME280;57291;37.520;15.106;2024-03-17T08:01:04;101731.53;;;21.84;46.95
54556;BME280;57291;37.520;15.106;2024-03-17T08:03:32;101736.91;;;21.07;48.63
54556;BME280;57291;37.520;15.106;2024-03-17T08:06:00;101754.00;;;20.88;50.42
54556;BME280;57291;37.520;15.106;2024-03-17T08:08:28;101746.75;;;20.42;52.52
54556;BME280;57291;37.520;15.106;2024-03-17T08:10:55;101749.63;;;20.03;53.55
54556;BME280;57291;37.520;15.106;2024-03-17T08:13:21;101748.97;;;19.38;55.97
54556;BME280;57291;37.520;15.106;2024-03-17T08:16:00;101749.84;;;19.13;57.11
54556;BME280;57291;37.520;15.106;2024-03-17T08:18:26;101749.88;;;19.04;57.34
54556;BME280;57291;37.520;15.106;2024-03-17T08:20:53;101750.38;;;18.97;56.61
54556;BME280;57291;37.520;15.106;2024-03-17T08:23:21;101751.81;;;19.04;55.03
54556;BME280;57291;37.520;15.106;2024-03-17T08:25:54;101752.78;;;19.08;55.31
54556;BME280;57291;37.520;15.106;2024-03-17T08:28:21;101756.81;;;19.10;57.46
54556;BME280;57291;37.520;15.106;2024-03-17T08:30:57;101749.66;;;19.18;58.06
54556;BME280;57291;37.520;15.106;2024-03-17T08:33:25;101766.53;;;19.16;54.56
54556;BME280;57291;37.520;15.106;2024-03-17T08:35:59;101764.44;;;19.05;53.98
54556;BME280;57291;37.520;15.106;2024-03-17T08:38:27;101774.81;;;19.08;53.70
54556;BME280;57291;37.520;15.106;2024-03-17T08:41:03;101774.69;;;18.78;56.21
54556;BME280;57291;37.520;15.106;2024-03-17T08:43:30;101776.94;;;18.59;61.04
54556;BME280;57291;37.520;15.106;2024-03-17T08:46:01;101770.94;;;18.13;62.05
54556;BME280;57291;37.520;15.106;2024-03-17T08:48:30;101778.66;;;18.02;62.56
54556;BME280;57291;37.520;15.106;2024-03-17T08:50:57;101775.09;;;17.93;59.45
54556;BME280;57291;37.520;15.106;2024-03-17T08:53:25;101778.88;;;17.75;59.49
54556;BME280;57291;37.520;15.106;2024-03-17T08:55:53;101783.31;;;17.53;59.44
54556;BME280;57291;37.520;15.106;2024-03-17T08:58:19;101770.03;;;17.47;61.13
54556;BME280;57291;37.520;15.106;2024-03-17T09:00:46;101767.56;;;17.37;62.47
54556;BME280;57291;37.520;15.106;2024-03-17T09:03:12;101782.94;;;17.38;63.81
54556;BME280;57291;37.520;15.106;2024-03-17T09:05:40;101790.34;;;17.37;64.82
54556;BME280;57291;37.520;15.106;2024-03-17T09:08:07;101787.47;;;17.42;65.57
54556;BME280;57291;37.520;15.106;2024-03-17T09:10:40;101793.03;;;17.59;65.00
54556;BME280;57291;37.520;15.106;2024-03-17T09:13:09;101795.50;;;17.61;64.02
54556;BME280;57291;37.520;15.106;2024-03-17T09:15:39;101790.13;;;17.56;63.57
54556;BME280;57291;37.520;15.106;2024-03-17T09:18:05;101790.41;;;17.46;64.68
54556;BME280;57291;37.520;15.106;2024-03-17T09:20:32;101784.59;;;17.47;66.78
54556;BME280;57291;37.520;15.106;2024-03-17T09:22:58;101783.19;;;17.58;66.33
54556;BME280;57291;37.520;15.106;2024-03-17T09:25:24;101777.47;;;17.46;65.11
54556;BME280;57291;37.520;15.106;2024-03-17T09:27:51;101775.16;;;17.31;65.39
54556;BME280;57291;37.520;15.106;2024-03-17T09:30:17;101776.94;;;17.35;67.07
54556;BME280;57291;37.520;15.106;2024-03-17T09:32:43;101775.25;;;16.95;67.84
54556;BME280;57291;37.520;15.106;2024-03-17T09:35:10;101792.91;;;16.80;69.63
54556;BME280;57291;37.520;15.106;2024-03-17T09:37:36;101796.78;;;16.79;72.34
54556;BME280;57291;37.520;15.106;2024-03-17T09:40:03;101792.78;;;16.85;73.25
54556;BME280;57291;37.520;15.106;2024-03-17T09:42:32;101797.78;;;16.69;75.72
54556;BME280;57291;37.520;15.106;2024-03-17T09:44:58;101808.69;;;16.60;76.91
54556;BME280;57291;37.520;15.106;2024-03-17T09:47:25;101798.28;;;16.71;77.64
54556;BME280;57291;37.520;15.106;2024-03-17T09:49:52;101802.06;;;17.20;77.60
54556;BME280;57291;37.520;15.106;2024-03-17T09:52:25;101808.31;;;17.34;77.81
54556;BME280;57291;37.520;15.106;2024-03-17T09:55:08;101805.38;;;16.86;78.09
54556;BME280;57291;37.520;15.106;2024-03-17T09:57:39;101800.06;;;16.53;81.59
54556;BME280;57291;37.520;15.106;2024-03-17T10:00:14;101811.13;;;16.62;82.69
54556;BME280;57291;37.520;15.106;2024-03-17T10:02:48;101806.25;;;16.95;82.97
54556;BME280;57291;37.520;15.106;2024-03-17T10:05:19;101810.25;;;17.43;81.44
54556;BME280;57291;37.520;15.106;2024-03-17T10:07:49;101812.78;;;17.30;80.18
54556;BME280;57291;37.520;15.106;2024-03-17T10:10:17;101819.31;;;17.12;79.73
54556;BME280;57291;37.520;15.106;2024-03-17T10:12:49;101818.25;;;17.22;80.02
54556;BME280;57291;37.520;15.106;2024-03-17T10:15:17;101808.41;;;17.29;80.69
54556;BME280;57291;37.520;15.106;2024-03-17T10:17:44;101801.59;;;17.27;79.31
54556;BME280;57291;37.520;15.106;2024-03-17T10:20:17;101800.09;;;17.43;81.12
54556;BME280;57291;37.520;15.106;2024-03-17T10:23:00;101802.19;;;17.46;81.14
54556;BME280;57291;37.520;15.106;2024-03-17T10:25:28;101806.00;;;17.28;83.13
54556;BME280;57291;37.520;15.106;2024-03-17T10:27:55;101794.94;;;17.19;84.68
54556;BME280;57291;37.520;15.106;2024-03-17T10:30:24;101800.72;;;17.40;83.93
54556;BME280;57291;37.520;15.106;2024-03-17T10:32:53;101804.50;;;17.53;83.20
54556;BME280;57291;37.520;15.106;2024-03-17T10:35:27;101805.16;;;17.81;81.25
54556;BME280;57291;37.520;15.106;2024-03-17T10:37:57;101801.94;;;17.88;81.95
54556;BME280;57291;37.520;15.106;2024-03-17T10:40:25;101805.53;;;17.66;81.01
54556;BME280;57291;37.520;15.106;2024-03-17T10:42:52;101796.44;;;17.56;82.07
54556;BME280;57291;37.520;15.106;2024-03-17T10:45:18;101809.41;;;17.65;82.09
54556;BME280;57291;37.520;15.106;2024-03-17T10:47:48;101820.44;;;17.42;83.61
54556;BME280;57291;37.520;15.106;2024-03-17T10:50:18;101814.91;;;17.33;85.93
54556;BME280;57291;37.520;15.106;2024-03-17T10:52:47;101817.53;;;17.39;85.13
54556;BME280;57291;37.520;15.106;2024-03-17T10:58:54;101820.03;;;17.04;86.56
54556;BME280;57291;37.520;15.106;2024-03-17T11:01:03;101824.53;;;17.00;87.34
54556;BME280;57291;37.520;15.106;2024-03-17T11:03:33;101816.22;;;17.14;87.13
54556;BME280;57291;37.520;15.106;2024-03-17T11:06:03;101814.72;;;17.30;86.05
54556;BME280;57291;37.520;15.106;2024-03-17T11:08:32;101811.41;;;17.42;84.80
54556;BME280;57291;37.520;15.106;2024-03-17T11:11:00;101822.25;;;17.47;84.23
54556;BME280;57291;37.520;15.106;2024-03-17T11:13:28;101819.59;;;17.10;84.43
54556;BME280;57291;37.520;15.106;2024-03-17T11:15:56;101821.88;;;17.08;81.88
54556;BME280;57291;37.520;15.106;2024-03-17T11:18:27;101826.56;;;17.39;79.78
54556;BME280;57291;37.520;15.106;2024-03-17T11:20:59;101818.97;;;17.36;78.85
54556;BME280;57291;37.520;15.106;2024-03-17T11:23:29;101827.81;;;17.33;79.25
54556;BME280;57291;37.520;15.106;2024-03-17T11:25:57;101830.53;;;17.24;79.71
54556;BME280;57291;37.520;15.106;2024-03-17T11:31:32;101830.19;;;16.95;75.94
54556;BME280;57291;37.520;15.106;2024-03-17T11:33:59;101825.28;;;17.14;74.88
54556;BME280;57291;37.520;15.106;2024-03-17T11:36:36;101826.84;;;17.29;74.92
54556;BME280;57291;37.520;15.106;2024-03-17T11:39:09;101811.09;;;17.21;73.67
54556;BME280;57291;37.520;15.106;2024-03-17T11:41:51;101809.50;;;16.97;74.56
54556;BME280;57291;37.520;15.106;2024-03-17T11:46:59;101802.56;;;17.00;75.58
54556;BME280;57291;37.520;15.106;2024-03-17T11:49:31;101805.56;;;17.34;73.96
54556;BME280;57291;37.520;15.106;2024-03-17T11:52:00;101806.22;;;17.40;72.94
54556;BME280;57291;37.520;15.106;2024-03-17T11:54:28;101802.69;;;17.17;73.54
54556;BME280;57291;37.520;15.106;2024-03-17T11:57:06;101808.25;;;17.03;74.32
54556;BME280;57291;37.520;15.106;2024-03-17T11:59:33;101808.06;;;17.00;74.93
54556;BME280;57291;37.520;15.106;2024-03-17T12:02:00;101810.97;;;16.81;74.83
54556;BME280;57291;37.520;15.106;2024-03-17T12:04:28;101797.66;;;16.38;75.25
54556;BME280;57291;37.520;15.106;2024-03-17T12:06:56;101797.41;;;16.26;76.38
54556;BME280;57291;37.520;15.106;2024-03-17T12:09:28;101792.53;;;16.23;76.98
54556;BME280;57291;37.520;15.106;2024-03-17T12:12:04;101795.28;;;16.23;77.31
54556;BME280;57291;37.520;15.106;2024-03-17T12:14:33;101785.13;;;16.09;77.11
54556;BME280;57291;37.520;15.106;2024-03-17T12:17:01;101783.91;;;16.02;78.15
54556;BME280;57291;37.520;15.106;2024-03-17T12:19:28;101786.97;;;16.00;78.34
54556;BME280;57291;37.520;15.106;2024-03-17T12:21:58;101786.66;;;16.02;78.17
54556;BME280;57291;37.520;15.106;2024-03-17T12:24:33;101782.06;;;16.11;78.10
54556;BME280;57291;37.520;15.106;2024-03-17T12:27:04;101782.59;;;16.13;78.39
54556;BME280;57291;37.520;15.106;2024-03-17T12:29:32;101784.53;;;16.12;77.28
54556;BME280;57291;37.520;15.106;2024-03-17T12:32:08;101783.38;;;16.27;75.79
54556;BME280;57291;37.520;15.106;2024-03-17T12:34:37;101776.66;;;16.33;76.50
54556;BME280;57291;37.520;15.106;2024-03-17T12:37:04;101779.97;;;16.44;75.94
54556;BME280;57291;37.520;15.106;2024-03-17T12:39:32;101772.03;;;16.56;76.56
54556;BME280;57291;37.520;15.106;2024-03-17T12:42:12;101759.16;;;16.43;78.35
54556;BME280;57291;37.520;15.106;2024-03-17T12:44:47;101749.06;;;16.52;77.17
54556;BME280;57291;37.520;15.106;2024-03-17T12:47:18;101752.28;;;16.54;78.11
54556;BME280;57291;37.520;15.106;2024-03-17T12:49:50;101753.00;;;16.60;78.35
54556;BME280;57291;37.520;15.106;2024-03-17T12:52:23;101745.00;;;16.50;78.91
54556;BME280;57291;37.520;15.106;2024-03-17T12:55:05;101755.75;;;16.60;79.21